sensor_id;sensor_type;location;lat;lon;timestamp;temperature;humidity
45489;DHT22;31236;55.026;61.042;2023-08-24T00:00:13;10.20;91.40
45489;DHT22;31236;55.026;61.042;2023-08-24T00:02:44;10.10;91.40
45489;DHT22;31236;55.026;61.042;2023-08-24T00:05:15;10.10;91.40
45489;DHT22;31236;55.026;61.042;2023-08-24T00:07:45;10.20;91.30
45489;DHT22;31236;55.026;61.042;2023-08-24T00:13:46;10.20;91.20
45489;DHT22;31236;55.026;61.042;2023-08-24T00:16:35;10.10;91.00
45489;DHT22;31236;55.026;61.042;2023-08-24T00:19:06;10.00;91.10
45489;DHT22;31236;55.026;61.042;2023-08-24T00:21:39;9.90;91.20
45489;DHT22;31236;55.026;61.042;2023-08-24T00:24:09;10.00;91.20
45489;DHT22;31236;55.026;61.042;2023-08-24T00:26:40;10.00;91.10
45489;DHT22;31236;55.026;61.042;2023-08-24T00:29:11;10.00;91.00
45489;DHT22;31236;55.026;61.042;2023-08-24T00:34:16;10.00;91.00
45489;DHT22;31236;55.026;61.042;2023-08-24T00:36:46;10.00;90.90
45489;DHT22;31236;55.026;61.042;2023-08-24T00:39:17;10.00;90.90
45489;DHT22;31236;55.026;61.042;2023-08-24T00:44:22;10.00;91.10
45489;DHT22;31236;55.026;61.042;2023-08-24T00:50:21;10.00;91.10
45489;DHT22;31236;55.026;61.042;2023-08-24T00:52:52;9.90;91.10
45489;DHT22;31236;55.026;61.042;2023-08-24T00:59:10;9.80;91.20
45489;DHT22;31236;55.026;61.042;2023-08-24T01:01:42;9.70;91.00
45489;DHT22;31236;55.026;61.042;2023-08-24T01:04:16;9.70;91.10
45489;DHT22;31236;55.026;61.042;2023-08-24T01:06:47;9.60;91.20
45489;DHT22;31236;55.026;61.042;2023-08-24T01:09:21;9.60;91.30
45489;DHT22;31236;55.026;61.042;2023-08-24T01:37:59;9.40;91.20
45489;DHT22;31236;55.026;61.042;2023-08-24T01:47:31;9.50;91.30
45489;DHT22;31236;55.026;61.042;2023-08-24T01:50:02;9.50;91.30
45489;DHT22;31236;55.026;61.042;2023-08-24T01:59:51;9.50;91.60
45489;DHT22;31236;55.026;61.042;2023-08-24T02:02:23;9.50;91.50
45489;DHT22;31236;55.026;61.042;2023-08-24T02:07:28;9.70;91.60
45489;DHT22;31236;55.026;61.042;2023-08-24T02:09:59;9.80;91.70
45489;DHT22;31236;55.026;61.042;2023-08-24T02:12:29;9.80;91.60
45489;DHT22;31236;55.026;61.042;2023-08-24T02:15:00;9.90;91.60
45489;DHT22;31236;55.026;61.042;2023-08-24T02:17:33;10.00;91.60
45489;DHT22;31236;55.026;61.042;2023-08-24T02:20:04;10.10;91.60
45489;DHT22;31236;55.026;61.042;2023-08-24T02:22:36;10.10;91.50
45489;DHT22;31236;55.026;61.042;2023-08-24T02:25:08;10.20;91.60
45489;DHT22;31236;55.026;61.042;2023-08-24T02:31:10;10.30;91.60
45489;DHT22;31236;55.026;61.042;2023-08-24T02:33:40;10.30;91.50
45489;DHT22;31236;55.026;61.042;2023-08-24T02:36:11;10.40;91.50
45489;DHT22;31236;55.026;61.042;2023-08-24T02:38:41;10.50;91.50
45489;DHT22;31236;55.026;61.042;2023-08-24T02:41:11;10.60;91.50
45489;DHT22;31236;55.026;61.042;2023-08-24T02:47:10;10.80;91.40
45489;DHT22;31236;55.026;61.042;2023-08-24T02:49:42;10.90;91.20
45489;DHT22;31236;55.026;61.042;2023-08-24T02:52:14;10.90;91.20
45489;DHT22;31236;55.026;61.042;2023-08-24T02:54:44;11.00;91.10
45489;DHT22;31236;55.026;61.042;2023-08-24T02:57:14;11.10;91.00
45489;DHT22;31236;55.026;61.042;2023-08-24T02:59:44;11.10;90.90
45489;DHT22;31236;55.026;61.042;2023-08-24T03:02:14;11.20;90.90
45489;DHT22;31236;55.026;61.042;2023-08-24T03:04:45;11.30;90.80
45489;DHT22;31236;55.026;61.042;2023-08-24T03:07:15;11.30;90.80
45489;DHT22;31236;55.026;61.042;2023-08-24T03:09:45;11.40;90.70
45489;DHT22;31236;55.026;61.042;2023-08-24T03:12:15;11.50;90.60
45489;DHT22;31236;55.026;61.042;2023-08-24T03:14:46;11.50;90.50
45489;DHT22;31236;55.026;61.042;2023-08-24T03:17:16;11.60;90.40
45489;DHT22;31236;55.026;61.042;2023-08-24T03:19:47;11.60;90.30
45489;DHT22;31236;55.026;61.042;2023-08-24T03:22:17;11.60;90.20
45489;DHT22;31236;55.026;61.042;2023-08-24T03:24:47;11.60;90.20
45489;DHT22;31236;55.026;61.042;2023-08-24T03:27:17;11.70;90.20
45489;DHT22;31236;55.026;61.042;2023-08-24T03:29:47;11.80;90.10
45489;DHT22;31236;55.026;61.042;2023-08-24T03:32:18;11.90;90.00
45489;DHT22;31236;55.026;61.042;2023-08-24T03:34:50;11.90;89.80
45489;DHT22;31236;55.026;61.042;2023-08-24T03:37:20;12.00;89.80
45489;DHT22;31236;55.026;61.042;2023-08-24T03:39:51;12.10;89.60
45489;DHT22;31236;55.026;61.042;2023-08-24T03:42:21;12.10;89.20
45489;DHT22;31236;55.026;61.042;2023-08-24T03:44:51;12.20;89.00
45489;DHT22;31236;55.026;61.042;2023-08-24T03:47:21;12.30;88.80
45489;DHT22;31236;55.026;61.042;2023-08-24T03:49:51;12.40;88.70
45489;DHT22;31236;55.026;61.042;2023-08-24T03:52:23;12.50;88.50
45489;DHT22;31236;55.026;61.042;2023-08-24T03:54:53;12.60;88.00
45489;DHT22;31236;55.026;61.042;2023-08-24T03:57:24;12.60;87.80
45489;DHT22;31236;55.026;61.042;2023-08-24T03:59:55;12.70;87.70
45489;DHT22;31236;55.026;61.042;2023-08-24T04:02:25;12.80;87.40
45489;DHT22;31236;55.026;61.042;2023-08-24T04:04:55;12.80;87.10
45489;DHT22;31236;55.026;61.042;2023-08-24T04:07:25;12.90;86.90
45489;DHT22;31236;55.026;61.042;2023-08-24T04:09:55;12.90;86.40
45489;DHT22;31236;55.026;61.042;2023-08-24T04:12:26;12.90;85.90
45489;DHT22;31236;55.026;61.042;2023-08-24T04:14:56;12.90;85.70
45489;DHT22;31236;55.026;61.042;2023-08-24T04:17:26;12.90;85.50
45489;DHT22;31236;55.026;61.042;2023-08-24T04:19:57;13.00;85.30
45489;DHT22;31236;55.026;61.042;2023-08-24T04:22:28;13.10;85.00
45489;DHT22;31236;55.026;61.042;2023-08-24T04:24:58;13.20;84.60
45489;DHT22;31236;55.026;61.042;2023-08-24T04:27:28;13.20;84.50
45489;DHT22;31236;55.026;61.042;2023-08-24T04:29:59;13.30;84.30
45489;DHT22;31236;55.026;61.042;2023-08-24T04:32:33;13.40;84.30
45489;DHT22;31236;55.026;61.042;2023-08-24T04:35:04;13.50;83.80
45489;DHT22;31236;55.026;61.042;2023-08-24T04:37:35;13.60;83.30
45489;DHT22;31236;55.026;61.042;2023-08-24T04:40:07;13.60;83.10
45489;DHT22;31236;55.026;61.042;2023-08-24T04:42:38;13.60;82.90
45489;DHT22;31236;55.026;61.042;2023-08-24T04:45:09;13.70;82.60
45489;DHT22;31236;55.026;61.042;2023-08-24T04:47:39;13.80;82.30
45489;DHT22;31236;55.026;61.042;2023-08-24T04:50:10;13.90;81.80
45489;DHT22;31236;55.026;61.042;2023-08-24T04:52:40;13.90;81.50
45489;DHT22;31236;55.026;61.042;2023-08-24T04:55:10;14.00;81.20
45489;DHT22;31236;55.026;61.042;2023-08-24T04:57:40;14.00;80.60
45489;DHT22;31236;55.026;61.042;2023-08-24T05:00:11;14.10;80.40
45489;DHT22;31236;55.026;61.042;2023-08-24T05:02:43;14.10;80.00
45489;DHT22;31236;55.026;61.042;2023-08-24T05:05:13;14.20;79.70
45489;DHT22;31236;55.026;61.042;2023-08-24T05:07:44;14.20;79.50
45489;DHT22;31236;55.026;61.042;2023-08-24T05:10:14;14.20;79.30
45489;DHT22;31236;55.026;61.042;2023-08-24T05:12:44;14.20;79.30
45489;DHT22;31236;55.026;61.042;2023-08-24T05:15:13;14.40;79.30
45489;DHT22;31236;55.026;61.042;2023-08-24T05:17:44;14.50;79.20
45489;DHT22;31236;55.026;61.042;2023-08-24T05:20:13;14.60;78.80
45489;DHT22;31236;55.026;61.042;2023-08-24T05:22:43;14.70;78.40
45489;DHT22;31236;55.026;61.042;2023-08-24T05:25:13;14.70;78.00
45489;DHT22;31236;55.026;61.042;2023-08-24T05:27:43;14.80;77.50
45489;DHT22;31236;55.026;61.042;2023-08-24T05:30:14;14.80;76.90
45489;DHT22;31236;55.026;61.042;2023-08-24T05:32:44;14.90;76.80
45489;DHT22;31236;55.026;61.042;2023-08-24T05:35:14;14.90;76.30
45489;DHT22;31236;55.026;61.042;2023-08-24T05:37:44;15.00;76.10
45489;DHT22;31236;55.026;61.042;2023-08-24T05:40:14;15.10;76.10
45489;DHT22;31236;55.026;61.042;2023-08-24T05:42:44;15.20;75.70
45489;DHT22;31236;55.026;61.042;2023-08-24T05:45:14;15.30;75.40
45489;DHT22;31236;55.026;61.042;2023-08-24T05:47:45;15.30;75.10
45489;DHT22;31236;55.026;61.042;2023-08-24T05:50:15;15.40;74.90
45489;DHT22;31236;55.026;61.042;2023-08-24T05:52:45;15.50;74.20
45489;DHT22;31236;55.026;61.042;2023-08-24T05:55:15;15.40;73.60
45489;DHT22;31236;55.026;61.042;2023-08-24T05:57:44;15.40;73.30
45489;DHT22;31236;55.026;61.042;2023-08-24T06:00:15;15.40;72.60
45489;DHT22;31236;55.026;61.042;2023-08-24T06:02:45;15.30;72.30
45489;DHT22;31236;55.026;61.042;2023-08-24T06:05:16;15.40;71.80
45489;DHT22;31236;55.026;61.042;2023-08-24T06:07:45;15.50;71.70
45489;DHT22;31236;55.026;61.042;2023-08-24T06:10:15;15.60;71.10
45489;DHT22;31236;55.026;61.042;2023-08-24T06:12:47;15.70;70.90
45489;DHT22;31236;55.026;61.042;2023-08-24T06:15:17;15.70;70.60
45489;DHT22;31236;55.026;61.042;2023-08-24T06:17:48;15.80;70.40
45489;DHT22;31236;55.026;61.042;2023-08-24T06:20:19;15.80;70.30
45489;DHT22;31236;55.026;61.042;2023-08-24T06:22:49;15.90;70.20
45489;DHT22;31236;55.026;61.042;2023-08-24T06:25:19;15.70;70.10
45489;DHT22;31236;55.026;61.042;2023-08-24T06:27:50;15.60;70.00
45489;DHT22;31236;55.026;61.042;2023-08-24T06:30:20;15.60;69.90
45489;DHT22;31236;55.026;61.042;2023-08-24T06:32:50;15.60;70.10
45489;DHT22;31236;55.026;61.042;2023-08-24T06:35:20;15.70;69.80
45489;DHT22;31236;55.026;61.042;2023-08-24T06:37:50;15.80;69.80
45489;DHT22;31236;55.026;61.042;2023-08-24T06:40:20;15.70;69.70
45489;DHT22;31236;55.026;61.042;2023-08-24T06:42:50;15.60;69.60
45489;DHT22;31236;55.026;61.042;2023-08-24T06:45:20;15.60;69.50
45489;DHT22;31236;55.026;61.042;2023-08-24T06:47:50;15.80;69.30
45489;DHT22;31236;55.026;61.042;2023-08-24T06:50:20;15.90;68.40
45489;DHT22;31236;55.026;61.042;2023-08-24T06:52:50;16.00;68.00
45489;DHT22;31236;55.026;61.042;2023-08-24T06:55:20;16.00;67.80
45489;DHT22;31236;55.026;61.042;2023-08-24T06:57:49;15.90;67.80
45489;DHT22;31236;55.026;61.042;2023-08-24T07:00:20;15.90;67.90
45489;DHT22;31236;55.026;61.042;2023-08-24T07:02:50;15.90;67.70
45489;DHT22;31236;55.026;61.042;2023-08-24T07:05:21;15.70;67.80
45489;DHT22;31236;55.026;61.042;2023-08-24T07:07:51;15.60;68.00
45489;DHT22;31236;55.026;61.042;2023-08-24T07:10:21;15.40;68.00
45489;DHT22;31236;55.026;61.042;2023-08-24T07:12:51;15.40;68.20
45489;DHT22;31236;55.026;61.042;2023-08-24T07:15:21;15.40;68.10
45489;DHT22;31236;55.026;61.042;2023-08-24T07:17:51;15.40;68.00
45489;DHT22;31236;55.026;61.042;2023-08-24T07:20:21;15.50;67.90
45489;DHT22;31236;55.026;61.042;2023-08-24T07:22:50;15.40;68.20
45489;DHT22;31236;55.026;61.042;2023-08-24T07:25:21;15.40;68.40
45489;DHT22;31236;55.026;61.042;2023-08-24T07:27:51;15.40;68.10
45489;DHT22;31236;55.026;61.042;2023-08-24T07:30:23;15.40;68.10
45489;DHT22;31236;55.026;61.042;2023-08-24T07:33:13;15.30;68.20
45489;DHT22;31236;55.026;61.042;2023-08-24T07:35:43;15.30;68.10
45489;DHT22;31236;55.026;61.042;2023-08-24T07:38:13;15.50;67.80
45489;DHT22;31236;55.026;61.042;2023-08-24T07:40:43;15.80;67.70
45489;DHT22;31236;55.026;61.042;2023-08-24T07:43:13;15.90;67.10
45489;DHT22;31236;55.026;61.042;2023-08-24T07:45:43;16.10;66.90
45489;DHT22;31236;55.026;61.042;2023-08-24T07:48:13;16.20;66.90
45489;DHT22;31236;55.026;61.042;2023-08-24T07:50:43;16.30;66.60
45489;DHT22;31236;55.026;61.042;2023-08-24T07:53:13;16.40;66.40
45489;DHT22;31236;55.026;61.042;2023-08-24T07:55:43;16.40;66.00
45489;DHT22;31236;55.026;61.042;2023-08-24T07:58:13;16.40;65.90
45489;DHT22;31236;55.026;61.042;2023-08-24T08:00:43;16.30;66.10
45489;DHT22;31236;55.026;61.042;2023-08-24T08:03:13;16.30;66.10
45489;DHT22;31236;55.026;61.042;2023-08-24T08:05:43;16.30;65.70
45489;DHT22;31236;55.026;61.042;2023-08-24T08:08:14;16.30;65.30
45489;DHT22;31236;55.026;61.042;2023-08-24T08:10:45;16.40;65.40
45489;DHT22;31236;55.026;61.042;2023-08-24T08:13:15;16.50;65.00
45489;DHT22;31236;55.026;61.042;2023-08-24T08:15:45;16.50;64.70
45489;DHT22;31236;55.026;61.042;2023-08-24T08:18:15;16.40;64.50
45489;DHT22;31236;55.026;61.042;2023-08-24T08:20:44;16.40;64.40
45489;DHT22;31236;55.026;61.042;2023-08-24T08:23:14;16.30;64.30
45489;DHT22;31236;55.026;61.042;2023-08-24T08:25:44;16.30;64.20
45489;DHT22;31236;55.026;61.042;2023-08-24T08:28:14;16.40;63.80
45489;DHT22;31236;55.026;61.042;2023-08-24T08:30:46;16.50;63.40
45489;DHT22;31236;55.026;61.042;2023-08-24T08:33:16;16.70;63.30
45489;DHT22;31236;55.026;61.042;2023-08-24T08:35:47;16.70;63.40
45489;DHT22;31236;55.026;61.042;2023-08-24T08:38:17;16.70;63.60
45489;DHT22;31236;55.026;61.042;2023-08-24T08:40:50;16.70;63.70
45489;DHT22;31236;55.026;61.042;2023-08-24T08:43:21;16.70;63.50
45489;DHT22;31236;55.026;61.042;2023-08-24T08:45:52;16.50;63.40
45489;DHT22;31236;55.026;61.042;2023-08-24T08:48:25;16.40;63.60
45489;DHT22;31236;55.026;61.042;2023-08-24T08:50:58;16.60;64.10
45489;DHT22;31236;55.026;61.042;2023-08-24T08:53:30;16.60;63.40
45489;DHT22;31236;55.026;61.042;2023-08-24T08:56:01;16.50;63.30
45489;DHT22;31236;55.026;61.042;2023-08-24T08:58:32;16.30;63.40
45489;DHT22;31236;55.026;61.042;2023-08-24T09:01:03;16.30;63.80
45489;DHT22;31236;55.026;61.042;2023-08-24T09:03:35;16.40;63.70
45489;DHT22;31236;55.026;61.042;2023-08-24T09:06:05;16.50;63.40
45489;DHT22;31236;55.026;61.042;2023-08-24T09:08:37;16.50;63.00
45489;DHT22;31236;55.026;61.042;2023-08-24T09:11:07;16.50;63.10
45489;DHT22;31236;55.026;61.042;2023-08-24T09:13:38;16.50;63.10
45489;DHT22;31236;55.026;61.042;2023-08-24T09:16:08;16.70;63.10
45489;DHT22;31236;55.026;61.042;2023-08-24T09:18:41;16.80;62.90
45489;DHT22;31236;55.026;61.042;2023-08-24T09:21:13;16.80;62.80
45489;DHT22;31236;55.026;61.042;2023-08-24T09:24:03;16.80;62.80
45489;DHT22;31236;55.026;61.042;2023-08-24T09:26:35;16.70;63.00
45489;DHT22;31236;55.026;61.042;2023-08-24T09:35:26;16.40;64.00
45489;DHT22;31236;55.026;61.042;2023-08-24T09:37:56;16.30;64.10
45489;DHT22;31236;55.026;61.042;2023-08-24T09:40:26;16.40;64.10
45489;DHT22;31236;55.026;61.042;2023-08-24T09:42:55;16.40;64.00
45489;DHT22;31236;55.026;61.042;2023-08-24T09:45:25;16.50;64.10
45489;DHT22;31236;55.026;61.042;2023-08-24T09:47:55;16.60;63.60
45489;DHT22;31236;55.026;61.042;2023-08-24T09:50:25;16.70;63.50
45489;DHT22;31236;55.026;61.042;2023-08-24T09:52:57;16.80;63.40
45489;DHT22;31236;55.026;61.042;2023-08-24T09:55:29;16.70;63.20
45489;DHT22;31236;55.026;61.042;2023-08-24T09:58:01;16.70;63.20
45489;DHT22;31236;55.026;61.042;2023-08-24T10:00:33;16.70;63.20
45489;DHT22;31236;55.026;61.042;2023-08-24T10:03:03;16.60;63.20
45489;DHT22;31236;55.026;61.042;2023-08-24T10:05:33;16.50;63.40
45489;DHT22;31236;55.026;61.042;2023-08-24T10:08:05;16.50;63.30
45489;DHT22;31236;55.026;61.042;2023-08-24T10:10:36;16.50;63.50
45489;DHT22;31236;55.026;61.042;2023-08-24T10:13:11;16.70;63.20
45489;DHT22;31236;55.026;61.042;2023-08-24T10:15:40;16.80;63.10
45489;DHT22;31236;55.026;61.042;2023-08-24T10:18:46;16.80;63.20
45489;DHT22;31236;55.026;61.042;2023-08-24T10:20:46;16.70;63.20
45489;DHT22;31236;55.026;61.042;2023-08-24T10:23:16;16.60;63.10
45489;DHT22;31236;55.026;61.042;2023-08-24T10:25:49;16.50;63.30
45489;DHT22;31236;55.026;61.042;2023-08-24T10:28:19;16.50;63.40
45489;DHT22;31236;55.026;61.042;2023-08-24T10:30:50;16.60;63.30
45489;DHT22;31236;55.026;61.042;2023-08-24T10:33:21;16.70;63.10
45489;DHT22;31236;55.026;61.042;2023-08-24T10:35:52;16.80;63.00
45489;DHT22;31236;55.026;61.042;2023-08-24T10:38:42;16.90;62.90
45489;DHT22;31236;55.026;61.042;2023-08-24T10:41:12;16.90;63.00
45489;DHT22;31236;55.026;61.042;2023-08-24T10:43:48;17.00;62.70
45489;DHT22;31236;55.026;61.042;2023-08-24T10:46:14;17.00;62.60
45489;DHT22;31236;55.026;61.042;2023-08-24T10:51:18;17.30;62.20
45489;DHT22;31236;55.026;61.042;2023-08-24T10:56:40;17.30;61.90
45489;DHT22;31236;55.026;61.042;2023-08-24T11:01:59;16.90;62.30
45489;DHT22;31236;55.026;61.042;2023-08-24T11:04:31;16.80;62.40
45489;DHT22;31236;55.026;61.042;2023-08-24T11:07:01;16.80;62.30
45489;DHT22;31236;55.026;61.042;2023-08-24T11:09:50;16.70;62.60
45489;DHT22;31236;55.026;61.042;2023-08-24T11:12:20;16.60;62.50
45489;DHT22;31236;55.026;61.042;2023-08-24T11:14:51;16.60;62.20
45489;DHT22;31236;55.026;61.042;2023-08-24T11:17:41;16.60;62.30
45489;DHT22;31236;55.026;61.042;2023-08-24T11:20:13;16.50;62.20
45489;DHT22;31236;55.026;61.042;2023-08-24T11:22:44;16.60;62.30
45489;DHT22;31236;55.026;61.042;2023-08-24T11:25:15;16.60;62.40
45489;DHT22;31236;55.026;61.042;2023-08-24T11:27:45;16.60;62.30
45489;DHT22;31236;55.026;61.042;2023-08-24T11:30:17;16.60;62.40
45489;DHT22;31236;55.026;61.042;2023-08-24T11:35:21;16.50;62.80
45489;DHT22;31236;55.026;61.042;2023-08-24T11:37:53;16.50;63.00
45489;DHT22;31236;55.026;61.042;2023-08-24T11:40:23;16.50;63.00
45489;DHT22;31236;55.026;61.042;2023-08-24T11:43:12;16.50;63.00
45489;DHT22;31236;55.026;61.042;2023-08-24T11:45:42;16.50;62.90
45489;DHT22;31236;55.026;61.042;2023-08-24T11:48:12;16.50;62.80
45489;DHT22;31236;55.026;61.042;2023-08-24T11:50:42;16.60;62.80
45489;DHT22;31236;55.026;61.042;2023-08-24T11:53:12;16.60;62.90
45489;DHT22;31236;55.026;61.042;2023-08-24T11:55:41;16.60;62.70
45489;DHT22;31236;55.026;61.042;2023-08-24T11:58:31;16.60;62.90
45489;DHT22;31236;55.026;61.042;2023-08-24T12:01:01;16.70;63.10
45489;DHT22;31236;55.026;61.042;2023-08-24T12:03:31;16.80;63.20
45489;DHT22;31236;55.026;61.042;2023-08-24T12:06:02;16.90;63.20
45489;DHT22;31236;55.026;61.042;2023-08-24T12:08:36;16.90;63.00
45489;DHT22;31236;55.026;61.042;2023-08-24T12:13:55;17.00;62.60
45489;DHT22;31236;55.026;61.042;2023-08-24T12:16:25;16.90;63.00
45489;DHT22;31236;55.026;61.042;2023-08-24T12:18:56;16.80;63.30
45489;DHT22;31236;55.026;61.042;2023-08-24T12:21:45;16.70;63.40
45489;DHT22;31236;55.026;61.042;2023-08-24T12:24:15;16.70;63.50
45489;DHT22;31236;55.026;61.042;2023-08-24T12:26:44;16.50;63.80
45489;DHT22;31236;55.026;61.042;2023-08-24T12:29:17;16.40;64.00
45489;DHT22;31236;55.026;61.042;2023-08-24T12:31:47;16.50;63.90
45489;DHT22;31236;55.026;61.042;2023-08-24T12:34:17;16.60;63.70
45489;DHT22;31236;55.026;61.042;2023-08-24T12:36:47;16.60;63.60
45489;DHT22;31236;55.026;61.042;2023-08-24T12:39:16;16.60;63.80
45489;DHT22;31236;55.026;61.042;2023-08-24T12:41:47;16.40;64.00
45489;DHT22;31236;55.026;61.042;2023-08-24T12:44:16;16.30;64.30
45489;DHT22;31236;55.026;61.042;2023-08-24T12:46:46;16.30;64.20
45489;DHT22;31236;55.026;61.042;2023-08-24T12:49:16;16.40;64.20
45489;DHT22;31236;55.026;61.042;2023-08-24T12:51:46;16.40;64.50
45489;DHT22;31236;55.026;61.042;2023-08-24T12:54:16;16.20;64.80
45489;DHT22;31236;55.026;61.042;2023-08-24T12:56:46;16.10;65.00
45489;DHT22;31236;55.026;61.042;2023-08-24T12:59:16;16.10;65.20
45489;DHT22;31236;55.026;61.042;2023-08-24T13:01:45;16.10;65.50
45489;DHT22;31236;55.026;61.042;2023-08-24T13:04:15;16.20;65.50
45489;DHT22;31236;55.026;61.042;2023-08-24T13:06:45;16.20;65.40
45489;DHT22;31236;55.026;61.042;2023-08-24T13:09:15;16.30;65.50
45489;DHT22;31236;55.026;61.042;2023-08-24T13:11:45;16.40;65.40
45489;DHT22;31236;55.026;61.042;2023-08-24T13:14:15;16.50;65.20
45489;DHT22;31236;55.026;61.042;2023-08-24T13:16:45;16.60;65.20
45489;DHT22;31236;55.026;61.042;2023-08-24T13:19:15;16.80;65.10
45489;DHT22;31236;55.026;61.042;2023-08-24T13:21:45;16.80;65.10
45489;DHT22;31236;55.026;61.042;2023-08-24T13:24:15;16.80;65.10
45489;DHT22;31236;55.026;61.042;2023-08-24T13:26:45;16.70;65.40
45489;DHT22;31236;55.026;61.042;2023-08-24T13:29:15;16.80;65.50
45489;DHT22;31236;55.026;61.042;2023-08-24T13:31:44;16.70;65.90
45489;DHT22;31236;55.026;61.042;2023-08-24T13:34:14;16.70;66.10
45489;DHT22;31236;55.026;61.042;2023-08-24T13:36:44;16.70;66.00
45489;DHT22;31236;55.026;61.042;2023-08-24T13:39:14;16.80;66.00
45489;DHT22;31236;55.026;61.042;2023-08-24T13:41:44;16.80;66.20
45489;DHT22;31236;55.026;61.042;2023-08-24T13:44:14;16.80;66.20
45489;DHT22;31236;55.026;61.042;2023-08-24T13:46:43;17.00;66.20
45489;DHT22;31236;55.026;61.042;2023-08-24T13:49:13;17.10;66.10
45489;DHT22;31236;55.026;61.042;2023-08-24T13:51:43;17.10;66.30
45489;DHT22;31236;55.026;61.042;2023-08-24T13:54:32;17.20;66.60
45489;DHT22;31236;55.026;61.042;2023-08-24T13:57:03;17.20;66.70
45489;DHT22;31236;55.026;61.042;2023-08-24T13:59:33;17.20;66.40
45489;DHT22;31236;55.026;61.042;2023-08-24T14:02:05;17.20;66.80
45489;DHT22;31236;55.026;61.042;2023-08-24T14:04:35;17.20;67.20
45489;DHT22;31236;55.026;61.042;2023-08-24T14:07:05;17.20;67.40
45489;DHT22;31236;55.026;61.042;2023-08-24T14:09:35;17.20;67.60
45489;DHT22;31236;55.026;61.042;2023-08-24T14:12:05;17.20;67.60
45489;DHT22;31236;55.026;61.042;2023-08-24T14:14:35;17.20;67.60
45489;DHT22;31236;55.026;61.042;2023-08-24T14:17:04;17.10;67.90
45489;DHT22;31236;55.026;61.042;2023-08-24T14:19:34;17.00;68.40
45489;DHT22;31236;55.026;61.042;2023-08-24T14:22:03;16.90;68.80
45489;DHT22;31236;55.026;61.042;2023-08-24T14:24:33;16.70;69.30
45489;DHT22;31236;55.026;61.042;2023-08-24T14:27:03;16.60;69.50
45489;DHT22;31236;55.026;61.042;2023-08-24T14:29:32;16.40;69.90
45489;DHT22;31236;55.026;61.042;2023-08-24T14:32:02;16.30;70.30
45489;DHT22;31236;55.026;61.042;2023-08-24T14:34:31;16.10;70.60
45489;DHT22;31236;55.026;61.042;2023-08-24T14:37:01;16.00;71.00
45489;DHT22;31236;55.026;61.042;2023-08-24T14:39:31;15.80;71.30
45489;DHT22;31236;55.026;61.042;2023-08-24T14:42:00;15.70;71.70
45489;DHT22;31236;55.026;61.042;2023-08-24T14:44:31;15.60;72.00
45489;DHT22;31236;55.026;61.042;2023-08-24T14:47:02;15.40;72.20
45489;DHT22;31236;55.026;61.042;2023-08-24T14:49:32;15.30;72.50
45489;DHT22;31236;55.026;61.042;2023-08-24T14:52:01;15.20;72.80
45489;DHT22;31236;55.026;61.042;2023-08-24T14:54:31;15.10;73.10
45489;DHT22;31236;55.026;61.042;2023-08-24T14:57:01;15.00;73.40
45489;DHT22;31236;55.026;61.042;2023-08-24T14:59:31;14.90;73.80
45489;DHT22;31236;55.026;61.042;2023-08-24T15:02:00;14.80;74.10
45489;DHT22;31236;55.026;61.042;2023-08-24T15:04:30;14.60;74.30
45489;DHT22;31236;55.026;61.042;2023-08-24T15:06:59;14.50;74.60
45489;DHT22;31236;55.026;61.042;2023-08-24T15:09:30;14.40;74.90
45489;DHT22;31236;55.026;61.042;2023-08-24T15:12:00;14.40;75.30
45489;DHT22;31236;55.026;61.042;2023-08-24T15:14:31;14.30;75.50
45489;DHT22;31236;55.026;61.042;2023-08-24T15:17:01;14.20;75.70
45489;DHT22;31236;55.026;61.042;2023-08-24T15:19:32;14.10;75.90
45489;DHT22;31236;55.026;61.042;2023-08-24T15:22:01;14.00;76.20
45489;DHT22;31236;55.026;61.042;2023-08-24T15:24:31;13.90;76.40
45489;DHT22;31236;55.026;61.042;2023-08-24T15:27:01;13.80;76.60
45489;DHT22;31236;55.026;61.042;2023-08-24T15:29:50;13.70;76.80
45489;DHT22;31236;55.026;61.042;2023-08-24T15:32:20;13.60;77.00
45489;DHT22;31236;55.026;61.042;2023-08-24T15:34:50;13.50;77.20
45489;DHT22;31236;55.026;61.042;2023-08-24T15:37:22;13.40;77.50
45489;DHT22;31236;55.026;61.042;2023-08-24T15:39:52;13.30;77.70
45489;DHT22;31236;55.026;61.042;2023-08-24T15:42:22;13.30;77.90
45489;DHT22;31236;55.026;61.042;2023-08-24T15:44:52;13.20;78.00
45489;DHT22;31236;55.026;61.042;2023-08-24T15:47:22;13.20;78.10
45489;DHT22;31236;55.026;61.042;2023-08-24T15:49:52;13.10;78.30
45489;DHT22;31236;55.026;61.042;2023-08-24T15:52:22;13.10;78.30
45489;DHT22;31236;55.026;61.042;2023-08-24T15:54:52;13.00;78.40
45489;DHT22;31236;55.026;61.042;2023-08-24T15:57:22;12.90;78.60
45489;DHT22;31236;55.026;61.042;2023-08-24T15:59:52;12.90;78.80
45489;DHT22;31236;55.026;61.042;2023-08-24T16:02:23;12.80;78.90
45489;DHT22;31236;55.026;61.042;2023-08-24T16:04:53;12.70;79.10
45489;DHT22;31236;55.026;61.042;2023-08-24T16:07:23;12.70;79.30
45489;DHT22;31236;55.026;61.042;2023-08-24T16:09:53;12.60;79.40
45489;DHT22;31236;55.026;61.042;2023-08-24T16:12:23;12.60;79.60
45489;DHT22;31236;55.026;61.042;2023-08-24T16:14:53;12.60;79.70
45489;DHT22;31236;55.026;61.042;2023-08-24T16:17:23;12.50;79.80
45489;DHT22;31236;55.026;61.042;2023-08-24T16:19:53;12.50;80.00
45489;DHT22;31236;55.026;61.042;2023-08-24T16:22:23;12.40;80.20
45489;DHT22;31236;55.026;61.042;2023-08-24T16:24:52;12.40;80.30
45489;DHT22;31236;55.026;61.042;2023-08-24T17:12:01;11.40;82.00
45489;DHT22;31236;55.026;61.042;2023-08-24T17:29:43;10.80;82.80
45489;DHT22;31236;55.026;61.042;2023-08-24T17:32:15;10.70;83.10
45489;DHT22;31236;55.026;61.042;2023-08-24T17:34:45;10.70;83.50
45489;DHT22;31236;55.026;61.042;2023-08-24T17:37:15;10.70;83.90
45489;DHT22;31236;55.026;61.042;2023-08-24T17:39:46;10.70;84.00
45489;DHT22;31236;55.026;61.042;2023-08-24T17:42:16;10.70;84.10
45489;DHT22;31236;55.026;61.042;2023-08-24T17:45:08;10.70;84.20
45489;DHT22;31236;55.026;61.042;2023-08-24T17:50:33;10.80;84.40
45489;DHT22;31236;55.026;61.042;2023-08-24T17:53:06;10.80;84.40
45489;DHT22;31236;55.026;61.042;2023-08-24T17:55:36;10.80;84.80
45489;DHT22;31236;55.026;61.042;2023-08-24T17:58:06;10.80;84.90
45489;DHT22;31236;55.026;61.042;2023-08-24T18:00:36;10.80;85.10
45489;DHT22;31236;55.026;61.042;2023-08-24T18:03:06;10.80;85.30
45489;DHT22;31236;55.026;61.042;2023-08-24T18:05:36;10.80;85.30
45489;DHT22;31236;55.026;61.042;2023-08-24T18:08:06;10.80;85.40